Oak Creek, Colorado
Current Conditions -  °F | °C
As of 4:55 PM on Sunday 21 Dec 2014 (Local Time) from KSBS Reporting Station
Overcast Overcast  
Wind Chill: 24°   Ceiling: 2200
Heat Index: 34°   Visibility: 10mi
Dew Point: 31°   Wind: 14mph
Humidity: 89%   Direction: 270°W
Pressure: 29.72"   Gusts: 17mph
Location:  40.27°N, 106.96°W
Report Text: KSBS 212355Z AUTO 27012G15KT 10SM OVC022 01/M01 A2972 RMK AO1 T00101006 10012 21024
Loading
Personal Weather Stations






























Interactive Weather Map New forecast layout! Learn more

10-Day Weather Forecast

Advertisements
Track Severe Weather on mobile